sensor_id;sensor_type;location;lat;lon;timestamp;P1;durP1;ratioP1;P2;durP2;ratioP2
27225;SDS011;14732;51.074;3.788;2024-02-21T00:01:28;6.35;;;2.47;;
27225;SDS011;14732;51.074;3.788;2024-02-21T00:03:55;4.80;;;2.60;;
27225;SDS011;14732;51.074;3.788;2024-02-21T00:06:20;9.10;;;2.58;;
27225;SDS011;14732;51.074;3.788;2024-02-21T00:08:46;4.97;;;2.45;;
27225;SDS011;14732;51.074;3.788;2024-02-21T00:11:12;8.82;;;1.92;;
27225;SDS011;14732;51.074;3.788;2024-02-21T00:13:37;8.15;;;2.10;;
27225;SDS011;14732;51.074;3.788;2024-02-21T00:16:03;6.55;;;2.05;;
27225;SDS011;14732;51.074;3.788;2024-02-21T00:18:29;5.97;;;2.47;;
27225;SDS011;14732;51.074;3.788;2024-02-21T00:20:55;9.77;;;2.75;;
27225;SDS011;14732;51.074;3.788;2024-02-21T00:23:21;6.05;;;2.55;;
27225;SDS011;14732;51.074;3.788;2024-02-21T00:25:46;6.57;;;2.80;;
27225;SDS011;14732;51.074;3.788;2024-02-21T00:28:12;6.70;;;3.10;;
27225;SDS011;14732;51.074;3.788;2024-02-21T00:30:38;8.73;;;3.78;;
27225;SDS011;14732;51.074;3.788;2024-02-21T00:33:03;5.72;;;3.03;;
27225;SDS011;14732;51.074;3.788;2024-02-21T00:35:29;8.75;;;3.47;;
27225;SDS011;14732;51.074;3.788;2024-02-21T00:37:55;10.25;;;4.07;;
27225;SDS011;14732;51.074;3.788;2024-02-21T00:40:22;6.57;;;3.63;;
27225;SDS011;14732;51.074;3.788;2024-02-21T00:42:48;8.38;;;3.70;;
27225;SDS011;14732;51.074;3.788;2024-02-21T00:45:14;9.68;;;4.18;;
27225;SDS011;14732;51.074;3.788;2024-02-21T00:47:40;10.35;;;4.43;;
27225;SDS011;14732;51.074;3.788;2024-02-21T00:50:05;10.82;;;5.35;;
27225;SDS011;14732;51.074;3.788;2024-02-21T00:52:32;12.45;;;5.45;;
27225;SDS011;14732;51.074;3.788;2024-02-21T00:54:58;14.43;;;5.43;;
27225;SDS011;14732;51.074;3.788;2024-02-21T00:57:24;17.58;;;5.97;;
27225;SDS011;14732;51.074;3.788;2024-02-21T00:59:50;18.95;;;6.82;;
27225;SDS011;14732;51.074;3.788;2024-02-21T01:02:15;17.77;;;6.40;;
27225;SDS011;14732;51.074;3.788;2024-02-21T01:04:41;12.18;;;6.00;;
27225;SDS011;14732;51.074;3.788;2024-02-21T01:07:07;19.50;;;6.47;;
27225;SDS011;14732;51.074;3.788;2024-02-21T01:09:32;16.60;;;6.35;;
27225;SDS011;14732;51.074;3.788;2024-02-21T01:11:58;14.23;;;6.55;;
27225;SDS011;14732;51.074;3.788;2024-02-21T01:14:23;20.67;;;6.75;;
27225;SDS011;14732;51.074;3.788;2024-02-21T01:16:49;15.02;;;6.82;;
27225;SDS011;14732;51.074;3.788;2024-02-21T01:19:15;20.33;;;7.35;;
27225;SDS011;14732;51.074;3.788;2024-02-21T01:21:40;24.33;;;7.15;;
27225;SDS011;14732;51.074;3.788;2024-02-21T01:24:06;18.50;;;7.38;;
27225;SDS011;14732;51.074;3.788;2024-02-21T01:26:32;19.30;;;6.93;;
27225;SDS011;14732;51.074;3.788;2024-02-21T01:28:57;22.63;;;7.03;;
27225;SDS011;14732;51.074;3.788;2024-02-21T01:31:23;18.52;;;7.35;;
27225;SDS011;14732;51.074;3.788;2024-02-21T01:33:48;23.80;;;7.35;;
27225;SDS011;14732;51.074;3.788;2024-02-21T01:36:14;20.13;;;7.70;;
27225;SDS011;14732;51.074;3.788;2024-02-21T01:38:40;21.27;;;6.93;;
27225;SDS011;14732;51.074;3.788;2024-02-21T01:41:05;18.23;;;6.93;;
27225;SDS011;14732;51.074;3.788;2024-02-21T01:43:31;17.13;;;7.00;;
27225;SDS011;14732;51.074;3.788;2024-02-21T01:45:57;16.55;;;6.88;;
27225;SDS011;14732;51.074;3.788;2024-02-21T01:48:23;23.33;;;7.00;;
27225;SDS011;14732;51.074;3.788;2024-02-21T01:50:50;17.95;;;6.78;;
27225;SDS011;14732;51.074;3.788;2024-02-21T01:53:18;18.42;;;7.05;;
27225;SDS011;14732;51.074;3.788;2024-02-21T01:55:46;24.55;;;6.68;;
27225;SDS011;14732;51.074;3.788;2024-02-21T01:58:16;14.95;;;6.15;;
27225;SDS011;14732;51.074;3.788;2024-02-21T02:03:11;30.63;;;7.05;;
27225;SDS011;14732;51.074;3.788;2024-02-21T02:05:47;22.40;;;6.20;;
27225;SDS011;14732;51.074;3.788;2024-02-21T02:08:15;21.73;;;6.55;;
27225;SDS011;14732;51.074;3.788;2024-02-21T02:10:41;24.75;;;6.82;;
27225;SDS011;14732;51.074;3.788;2024-02-21T02:13:08;19.67;;;6.07;;
27225;SDS011;14732;51.074;3.788;2024-02-21T02:15:44;22.63;;;6.65;;
27225;SDS011;14732;51.074;3.788;2024-02-21T02:18:11;24.30;;;6.82;;
27225;SDS011;14732;51.074;3.788;2024-02-21T02:20:37;23.77;;;6.60;;
27225;SDS011;14732;51.074;3.788;2024-02-21T02:25:36;14.07;;;6.05;;
27225;SDS011;14732;51.074;3.788;2024-02-21T02:28:03;25.80;;;6.55;;
27225;SDS011;14732;51.074;3.788;2024-02-21T02:30:31;15.75;;;6.20;;
27225;SDS011;14732;51.074;3.788;2024-02-21T02:33:04;20.08;;;6.28;;
27225;SDS011;14732;51.074;3.788;2024-02-21T02:35:30;22.10;;;6.63;;
27225;SDS011;14732;51.074;3.788;2024-02-21T02:37:56;19.83;;;6.65;;
27225;SDS011;14732;51.074;3.788;2024-02-21T02:40:22;23.60;;;7.03;;
27225;SDS011;14732;51.074;3.788;2024-02-21T02:42:48;20.90;;;7.18;;
27225;SDS011;14732;51.074;3.788;2024-02-21T02:45:14;16.42;;;6.30;;
27225;SDS011;14732;51.074;3.788;2024-02-21T02:47:40;24.25;;;6.90;;
27225;SDS011;14732;51.074;3.788;2024-02-21T02:50:06;25.45;;;6.63;;
27225;SDS011;14732;51.074;3.788;2024-02-21T02:52:32;24.98;;;7.32;;
27225;SDS011;14732;51.074;3.788;2024-02-21T02:54:58;20.73;;;6.22;;
27225;SDS011;14732;51.074;3.788;2024-02-21T02:57:24;18.40;;;6.47;;
27225;SDS011;14732;51.074;3.788;2024-02-21T02:59:50;19.75;;;6.65;;
27225;SDS011;14732;51.074;3.788;2024-02-21T03:02:16;31.70;;;7.18;;
27225;SDS011;14732;51.074;3.788;2024-02-21T03:04:43;22.58;;;7.13;;
27225;SDS011;14732;51.074;3.788;2024-02-21T03:07:09;25.58;;;6.85;;
27225;SDS011;14732;51.074;3.788;2024-02-21T03:09:36;26.23;;;8.05;;
27225;SDS011;14732;51.074;3.788;2024-02-21T03:12:02;29.10;;;7.80;;
27225;SDS011;14732;51.074;3.788;2024-02-21T03:14:29;28.27;;;7.80;;
27225;SDS011;14732;51.074;3.788;2024-02-21T03:16:55;23.27;;;7.15;;
27225;SDS011;14732;51.074;3.788;2024-02-21T03:19:21;23.38;;;7.57;;
27225;SDS011;14732;51.074;3.788;2024-02-21T03:21:47;19.27;;;7.10;;
27225;SDS011;14732;51.074;3.788;2024-02-21T03:24:14;30.00;;;8.07;;
27225;SDS011;14732;51.074;3.788;2024-02-21T03:26:41;21.75;;;7.30;;
27225;SDS011;14732;51.074;3.788;2024-02-21T03:29:06;24.52;;;8.05;;
27225;SDS011;14732;51.074;3.788;2024-02-21T03:31:32;23.23;;;8.15;;
27225;SDS011;14732;51.074;3.788;2024-02-21T03:33:58;29.48;;;8.55;;
27225;SDS011;14732;51.074;3.788;2024-02-21T03:36:24;28.90;;;8.30;;
27225;SDS011;14732;51.074;3.788;2024-02-21T03:38:49;24.08;;;8.00;;
27225;SDS011;14732;51.074;3.788;2024-02-21T03:41:15;26.20;;;7.47;;
27225;SDS011;14732;51.074;3.788;2024-02-21T03:43:41;28.52;;;7.72;;
27225;SDS011;14732;51.074;3.788;2024-02-21T03:46:06;25.23;;;8.25;;
27225;SDS011;14732;51.074;3.788;2024-02-21T03:48:32;25.77;;;8.00;;
27225;SDS011;14732;51.074;3.788;2024-02-21T03:50:58;19.70;;;6.93;;
27225;SDS011;14732;51.074;3.788;2024-02-21T03:53:24;24.83;;;8.15;;
27225;SDS011;14732;51.074;3.788;2024-02-21T03:55:49;25.27;;;8.38;;
27225;SDS011;14732;51.074;3.788;2024-02-21T03:58:15;27.25;;;8.13;;
27225;SDS011;14732;51.074;3.788;2024-02-21T04:00:41;24.80;;;8.50;;
27225;SDS011;14732;51.074;3.788;2024-02-21T04:03:06;20.23;;;7.10;;
27225;SDS011;14732;51.074;3.788;2024-02-21T04:05:32;26.35;;;8.20;;
27225;SDS011;14732;51.074;3.788;2024-02-21T04:07:58;23.85;;;8.20;;
27225;SDS011;14732;51.074;3.788;2024-02-21T04:10:24;27.80;;;8.27;;
27225;SDS011;14732;51.074;3.788;2024-02-21T04:12:49;25.40;;;8.38;;
27225;SDS011;14732;51.074;3.788;2024-02-21T04:15:16;26.77;;;9.45;;
27225;SDS011;14732;51.074;3.788;2024-02-21T04:17:41;24.00;;;8.70;;
27225;SDS011;14732;51.074;3.788;2024-02-21T04:20:13;29.88;;;9.48;;
27225;SDS011;14732;51.074;3.788;2024-02-21T04:22:39;24.45;;;9.68;;
27225;SDS011;14732;51.074;3.788;2024-02-21T04:25:05;29.30;;;10.13;;
27225;SDS011;14732;51.074;3.788;2024-02-21T04:27:31;22.95;;;9.30;;
27225;SDS011;14732;51.074;3.788;2024-02-21T04:29:57;33.50;;;10.15;;
27225;SDS011;14732;51.074;3.788;2024-02-21T04:32:23;34.08;;;9.77;;
27225;SDS011;14732;51.074;3.788;2024-02-21T04:34:48;26.98;;;8.93;;
27225;SDS011;14732;51.074;3.788;2024-02-21T04:37:14;27.20;;;9.82;;
27225;SDS011;14732;51.074;3.788;2024-02-21T04:39:40;29.60;;;10.02;;
27225;SDS011;14732;51.074;3.788;2024-02-21T04:42:05;35.95;;;10.68;;
27225;SDS011;14732;51.074;3.788;2024-02-21T04:44:31;22.45;;;9.30;;
27225;SDS011;14732;51.074;3.788;2024-02-21T04:46:57;27.08;;;10.30;;
27225;SDS011;14732;51.074;3.788;2024-02-21T04:49:23;28.70;;;9.73;;
27225;SDS011;14732;51.074;3.788;2024-02-21T04:51:49;32.72;;;10.23;;
27225;SDS011;14732;51.074;3.788;2024-02-21T04:54:14;25.50;;;9.90;;
27225;SDS011;14732;51.074;3.788;2024-02-21T04:56:40;27.80;;;10.90;;
27225;SDS011;14732;51.074;3.788;2024-02-21T04:59:05;24.58;;;9.75;;
27225;SDS011;14732;51.074;3.788;2024-02-21T05:01:31;25.42;;;10.00;;
27225;SDS011;14732;51.074;3.788;2024-02-21T05:03:57;22.80;;;9.95;;
27225;SDS011;14732;51.074;3.788;2024-02-21T05:06:22;24.42;;;8.63;;
27225;SDS011;14732;51.074;3.788;2024-02-21T05:08:48;28.77;;;10.00;;
27225;SDS011;14732;51.074;3.788;2024-02-21T05:11:14;34.30;;;10.63;;
27225;SDS011;14732;51.074;3.788;2024-02-21T05:13:40;23.58;;;9.43;;
27225;SDS011;14732;51.074;3.788;2024-02-21T05:16:05;24.73;;;9.82;;
27225;SDS011;14732;51.074;3.788;2024-02-21T05:18:32;24.58;;;9.35;;
27225;SDS011;14732;51.074;3.788;2024-02-21T05:20:58;23.25;;;9.32;;
27225;SDS011;14732;51.074;3.788;2024-02-21T05:23:24;27.00;;;10.27;;
27225;SDS011;14732;51.074;3.788;2024-02-21T05:25:50;25.35;;;9.38;;
27225;SDS011;14732;51.074;3.788;2024-02-21T05:28:16;21.90;;;9.82;;
27225;SDS011;14732;51.074;3.788;2024-02-21T05:30:41;24.75;;;9.68;;
27225;SDS011;14732;51.074;3.788;2024-02-21T05:33:08;23.35;;;9.63;;
27225;SDS011;14732;51.074;3.788;2024-02-21T05:35:34;24.30;;;10.20;;
27225;SDS011;14732;51.074;3.788;2024-02-21T05:38:00;21.92;;;9.90;;
27225;SDS011;14732;51.074;3.788;2024-02-21T05:40:30;29.80;;;9.32;;
27225;SDS011;14732;51.074;3.788;2024-02-21T05:42:56;21.08;;;9.68;;
27225;SDS011;14732;51.074;3.788;2024-02-21T05:45:22;23.85;;;9.57;;
27225;SDS011;14732;51.074;3.788;2024-02-21T05:47:48;23.67;;;9.95;;
27225;SDS011;14732;51.074;3.788;2024-02-21T05:50:15;23.88;;;9.43;;
27225;SDS011;14732;51.074;3.788;2024-02-21T05:52:40;18.10;;;9.40;;
27225;SDS011;14732;51.074;3.788;2024-02-21T05:55:06;17.83;;;9.38;;
27225;SDS011;14732;51.074;3.788;2024-02-21T05:57:33;24.25;;;10.38;;
27225;SDS011;14732;51.074;3.788;2024-02-21T05:59:59;18.88;;;9.32;;
27225;SDS011;14732;51.074;3.788;2024-02-21T06:02:25;21.80;;;9.35;;
27225;SDS011;14732;51.074;3.788;2024-02-21T06:04:50;22.13;;;9.02;;
27225;SDS011;14732;51.074;3.788;2024-02-21T06:07:16;22.30;;;9.48;;
27225;SDS011;14732;51.074;3.788;2024-02-21T06:09:42;21.00;;;9.38;;
27225;SDS011;14732;51.074;3.788;2024-02-21T06:12:07;19.63;;;9.70;;
27225;SDS011;14732;51.074;3.788;2024-02-21T06:14:33;23.02;;;9.90;;
27225;SDS011;14732;51.074;3.788;2024-02-21T06:16:58;18.15;;;9.15;;
27225;SDS011;14732;51.074;3.788;2024-02-21T06:19:24;22.27;;;9.73;;
27225;SDS011;14732;51.074;3.788;2024-02-21T06:21:50;20.17;;;9.68;;
27225;SDS011;14732;51.074;3.788;2024-02-21T06:24:15;23.80;;;10.38;;
27225;SDS011;14732;51.074;3.788;2024-02-21T06:26:41;18.85;;;10.43;;
27225;SDS011;14732;51.074;3.788;2024-02-21T06:29:07;26.98;;;11.38;;
27225;SDS011;14732;51.074;3.788;2024-02-21T06:31:32;27.67;;;11.32;;
27225;SDS011;14732;51.074;3.788;2024-02-21T06:33:58;25.83;;;11.25;;
27225;SDS011;14732;51.074;3.788;2024-02-21T06:36:23;28.05;;;12.13;;
27225;SDS011;14732;51.074;3.788;2024-02-21T06:38:49;28.30;;;11.85;;
27225;SDS011;14732;51.074;3.788;2024-02-21T06:41:15;26.25;;;11.57;;
27225;SDS011;14732;51.074;3.788;2024-02-21T06:43:47;27.45;;;11.77;;
27225;SDS011;14732;51.074;3.788;2024-02-21T06:48:49;31.35;;;13.05;;
27225;SDS011;14732;51.074;3.788;2024-02-21T06:51:15;25.02;;;12.23;;
27225;SDS011;14732;51.074;3.788;2024-02-21T06:53:41;28.40;;;12.02;;
27225;SDS011;14732;51.074;3.788;2024-02-21T06:56:07;23.70;;;11.35;;
27225;SDS011;14732;51.074;3.788;2024-02-21T06:58:33;25.27;;;13.07;;
27225;SDS011;14732;51.074;3.788;2024-02-21T07:00:58;24.55;;;11.48;;
27225;SDS011;14732;51.074;3.788;2024-02-21T07:03:24;25.42;;;11.85;;
27225;SDS011;14732;51.074;3.788;2024-02-21T07:05:50;20.35;;;11.00;;
27225;SDS011;14732;51.074;3.788;2024-02-21T07:08:15;22.08;;;10.50;;
27225;SDS011;14732;51.074;3.788;2024-02-21T07:10:41;22.65;;;9.95;;
27225;SDS011;14732;51.074;3.788;2024-02-21T07:13:06;21.58;;;10.30;;
27225;SDS011;14732;51.074;3.788;2024-02-21T07:15:32;20.73;;;9.85;;
27225;SDS011;14732;51.074;3.788;2024-02-21T07:17:58;19.83;;;9.32;;
27225;SDS011;14732;51.074;3.788;2024-02-21T07:20:24;20.10;;;9.48;;
27225;SDS011;14732;51.074;3.788;2024-02-21T07:22:50;17.30;;;9.32;;
27225;SDS011;14732;51.074;3.788;2024-02-21T07:25:15;17.88;;;8.40;;
27225;SDS011;14732;51.074;3.788;2024-02-21T07:27:42;21.73;;;9.65;;
27225;SDS011;14732;51.074;3.788;2024-02-21T07:30:08;20.55;;;10.00;;
27225;SDS011;14732;51.074;3.788;2024-02-21T07:32:34;20.33;;;9.32;;
27225;SDS011;14732;51.074;3.788;2024-02-21T07:35:00;20.15;;;9.70;;
27225;SDS011;14732;51.074;3.788;2024-02-21T07:37:25;18.65;;;9.00;;
27225;SDS011;14732;51.074;3.788;2024-02-21T07:39:51;20.92;;;9.30;;
27225;SDS011;14732;51.074;3.788;2024-02-21T07:42:17;19.17;;;9.55;;
27225;SDS011;14732;51.074;3.788;2024-02-21T07:44:42;19.27;;;9.40;;
27225;SDS011;14732;51.074;3.788;2024-02-21T07:47:08;16.45;;;8.95;;
27225;SDS011;14732;51.074;3.788;2024-02-21T07:49:40;16.48;;;9.02;;
27225;SDS011;14732;51.074;3.788;2024-02-21T07:52:06;16.80;;;9.25;;
27225;SDS011;14732;51.074;3.788;2024-02-21T07:54:32;20.33;;;10.20;;
27225;SDS011;14732;51.074;3.788;2024-02-21T07:56:58;18.83;;;10.60;;
27225;SDS011;14732;51.074;3.788;2024-02-21T07:59:24;19.13;;;9.95;;
27225;SDS011;14732;51.074;3.788;2024-02-21T08:01:49;17.88;;;9.57;;
27225;SDS011;14732;51.074;3.788;2024-02-21T08:04:15;20.48;;;10.38;;
27225;SDS011;14732;51.074;3.788;2024-02-21T08:06:40;20.13;;;10.30;;
27225;SDS011;14732;51.074;3.788;2024-02-21T08:09:06;18.02;;;10.32;;
27225;SDS011;14732;51.074;3.788;2024-02-21T08:11:32;19.80;;;10.00;;
27225;SDS011;14732;51.074;3.788;2024-02-21T08:13:57;16.73;;;9.35;;
27225;SDS011;14732;51.074;3.788;2024-02-21T08:16:23;17.58;;;9.32;;
27225;SDS011;14732;51.074;3.788;2024-02-21T08:18:49;16.88;;;9.35;;
27225;SDS011;14732;51.074;3.788;2024-02-21T08:21:14;18.45;;;9.25;;
27225;SDS011;14732;51.074;3.788;2024-02-21T08:23:40;14.25;;;8.98;;
27225;SDS011;14732;51.074;3.788;2024-02-21T08:26:06;14.27;;;9.48;;
27225;SDS011;14732;51.074;3.788;2024-02-21T08:28:31;13.60;;;9.18;;
27225;SDS011;14732;51.074;3.788;2024-02-21T08:30:57;16.77;;;9.10;;
27225;SDS011;14732;51.074;3.788;2024-02-21T08:33:23;18.15;;;8.57;;
27225;SDS011;14732;51.074;3.788;2024-02-21T08:35:50;21.20;;;9.10;;
27225;SDS011;14732;51.074;3.788;2024-02-21T08:38:16;21.17;;;9.65;;
27225;SDS011;14732;51.074;3.788;2024-02-21T08:40:42;17.35;;;10.15;;
27225;SDS011;14732;51.074;3.788;2024-02-21T08:43:08;20.02;;;11.05;;
27225;SDS011;14732;51.074;3.788;2024-02-21T08:45:33;18.67;;;10.30;;
27225;SDS011;14732;51.074;3.788;2024-02-21T08:47:59;19.13;;;9.55;;
27225;SDS011;14732;51.074;3.788;2024-02-21T08:50:25;19.70;;;9.52;;
27225;SDS011;14732;51.074;3.788;2024-02-21T08:52:50;17.65;;;9.68;;
27225;SDS011;14732;51.074;3.788;2024-02-21T08:55:16;19.42;;;10.02;;
27225;SDS011;14732;51.074;3.788;2024-02-21T08:57:42;18.98;;;10.45;;
27225;SDS011;14732;51.074;3.788;2024-02-21T09:00:07;19.15;;;10.07;;
27225;SDS011;14732;51.074;3.788;2024-02-21T09:02:41;18.40;;;9.80;;
27225;SDS011;14732;51.074;3.788;2024-02-21T09:05:13;20.48;;;9.98;;
27225;SDS011;14732;51.074;3.788;2024-02-21T09:07:39;19.63;;;9.80;;
27225;SDS011;14732;51.074;3.788;2024-02-21T09:10:04;24.92;;;10.40;;
27225;SDS011;14732;51.074;3.788;2024-02-21T09:12:31;18.05;;;9.23;;
27225;SDS011;14732;51.074;3.788;2024-02-21T09:14:57;17.35;;;9.15;;
27225;SDS011;14732;51.074;3.788;2024-02-21T09:17:22;15.27;;;8.80;;
27225;SDS011;14732;51.074;3.788;2024-02-21T09:19:50;18.13;;;8.73;;
27225;SDS011;14732;51.074;3.788;2024-02-21T09:22:15;19.42;;;9.32;;
27225;SDS011;14732;51.074;3.788;2024-02-21T09:24:41;17.60;;;8.40;;
27225;SDS011;14732;51.074;3.788;2024-02-21T09:27:07;20.00;;;8.77;;
27225;SDS011;14732;51.074;3.788;2024-02-21T09:29:32;16.55;;;8.80;;
27225;SDS011;14732;51.074;3.788;2024-02-21T09:31:58;19.60;;;8.88;;
27225;SDS011;14732;51.074;3.788;2024-02-21T09:34:25;16.65;;;8.50;;
27225;SDS011;14732;51.074;3.788;2024-02-21T09:36:50;13.70;;;8.00;;
27225;SDS011;14732;51.074;3.788;2024-02-21T09:39:17;18.55;;;8.60;;
27225;SDS011;14732;51.074;3.788;2024-02-21T09:41:45;18.60;;;8.40;;
27225;SDS011;14732;51.074;3.788;2024-02-21T09:44:13;16.30;;;8.25;;
27225;SDS011;14732;51.074;3.788;2024-02-21T09:49:30;17.65;;;7.53;;
27225;SDS011;14732;51.074;3.788;2024-02-21T09:52:06;15.73;;;7.90;;
27225;SDS011;14732;51.074;3.788;2024-02-21T09:54:32;13.57;;;7.10;;
27225;SDS011;14732;51.074;3.788;2024-02-21T09:56:59;14.48;;;7.97;;
27225;SDS011;14732;51.074;3.788;2024-02-21T09:59:26;16.67;;;7.32;;
27225;SDS011;14732;51.074;3.788;2024-02-21T10:01:54;15.88;;;8.38;;
27225;SDS011;14732;51.074;3.788;2024-02-21T10:04:20;14.20;;;8.20;;
27225;SDS011;14732;51.074;3.788;2024-02-21T10:06:46;16.58;;;7.30;;
27225;SDS011;14732;51.074;3.788;2024-02-21T10:09:25;12.90;;;6.97;;
27225;SDS011;14732;51.074;3.788;2024-02-21T10:11:54;17.00;;;7.43;;
27225;SDS011;14732;51.074;3.788;2024-02-21T10:14:44;11.00;;;5.53;;
27225;SDS011;14732;51.074;3.788;2024-02-21T10:17:17;11.15;;;5.97;;
27225;SDS011;14732;51.074;3.788;2024-02-21T10:19:45;12.05;;;6.97;;
27225;SDS011;14732;51.074;3.788;2024-02-21T10:22:12;15.77;;;6.35;;
27225;SDS011;14732;51.074;3.788;2024-02-21T10:24:40;13.63;;;6.10;;
27225;SDS011;14732;51.074;3.788;2024-02-21T10:27:08;11.68;;;5.55;;
27225;SDS011;14732;51.074;3.788;2024-02-21T10:29:36;12.02;;;6.10;;
27225;SDS011;14732;51.074;3.788;2024-02-21T10:32:06;12.07;;;6.03;;
27225;SDS011;14732;51.074;3.788;2024-02-21T10:34:36;8.90;;;5.68;;
27225;SDS011;14732;51.074;3.788;2024-02-21T10:37:03;11.13;;;5.78;;
27225;SDS011;14732;51.074;3.788;2024-02-21T10:39:34;13.32;;;6.00;;
27225;SDS011;14732;51.074;3.788;2024-02-21T10:42:02;13.27;;;5.68;;
27225;SDS011;14732;51.074;3.788;2024-02-21T10:44:29;16.88;;;6.20;;
27225;SDS011;14732;51.074;3.788;2024-02-21T10:46:56;9.55;;;5.57;;
27225;SDS011;14732;51.074;3.788;2024-02-21T10:49:23;12.27;;;6.10;;
27225;SDS011;14732;51.074;3.788;2024-02-21T10:51:50;16.88;;;5.72;;
27225;SDS011;14732;51.074;3.788;2024-02-21T10:54:47;10.45;;;5.65;;
27225;SDS011;14732;51.074;3.788;2024-02-21T10:57:15;16.27;;;5.50;;
27225;SDS011;14732;51.074;3.788;2024-02-21T10:59:41;9.63;;;5.55;;
27225;SDS011;14732;51.074;3.788;2024-02-21T11:02:09;10.85;;;6.00;;
27225;SDS011;14732;51.074;3.788;2024-02-21T11:04:35;10.25;;;5.90;;
27225;SDS011;14732;51.074;3.788;2024-02-21T11:07:05;13.38;;;5.85;;
27225;SDS011;14732;51.074;3.788;2024-02-21T11:11:58;10.32;;;6.10;;
27225;SDS011;14732;51.074;3.788;2024-02-21T11:14:27;12.88;;;6.75;;
27225;SDS011;14732;51.074;3.788;2024-02-21T11:16:53;14.85;;;7.03;;
27225;SDS011;14732;51.074;3.788;2024-02-21T11:24:29;12.73;;;6.18;;
27225;SDS011;14732;51.074;3.788;2024-02-21T11:27:42;9.80;;;5.97;;
27225;SDS011;14732;51.074;3.788;2024-02-21T11:32:16;13.32;;;6.10;;
27225;SDS011;14732;51.074;3.788;2024-02-21T11:34:59;16.15;;;6.00;;
27225;SDS011;14732;51.074;3.788;2024-02-21T11:37:28;12.55;;;5.80;;
27225;SDS011;14732;51.074;3.788;2024-02-21T11:39:55;15.82;;;6.22;;
27225;SDS011;14732;51.074;3.788;2024-02-21T11:42:21;12.30;;;6.55;;
27225;SDS011;14732;51.074;3.788;2024-02-21T11:44:47;11.02;;;6.22;;
27225;SDS011;14732;51.074;3.788;2024-02-21T11:47:14;13.27;;;7.47;;
27225;SDS011;14732;51.074;3.788;2024-02-21T11:49:47;10.55;;;6.53;;
27225;SDS011;14732;51.074;3.788;2024-02-21T11:52:23;15.07;;;7.05;;
27225;SDS011;14732;51.074;3.788;2024-02-21T11:54:50;14.48;;;7.10;;
27225;SDS011;14732;51.074;3.788;2024-02-21T11:57:17;12.45;;;7.70;;
27225;SDS011;14732;51.074;3.788;2024-02-21T11:59:47;19.50;;;8.20;;
27225;SDS011;14732;51.074;3.788;2024-02-21T12:02:14;13.80;;;7.53;;
27225;SDS011;14732;51.074;3.788;2024-02-21T12:04:40;13.88;;;7.05;;
27225;SDS011;14732;51.074;3.788;2024-02-21T12:07:06;10.75;;;7.30;;
27225;SDS011;14732;51.074;3.788;2024-02-21T12:09:33;16.65;;;7.90;;
27225;SDS011;14732;51.074;3.788;2024-02-21T12:12:00;12.82;;;8.00;;
27225;SDS011;14732;51.074;3.788;2024-02-21T12:14:30;13.80;;;7.80;;
27225;SDS011;14732;51.074;3.788;2024-02-21T12:16:58;12.60;;;7.78;;
27225;SDS011;14732;51.074;3.788;2024-02-21T12:19:25;14.00;;;7.88;;
27225;SDS011;14732;51.074;3.788;2024-02-21T12:21:51;13.23;;;7.43;;
27225;SDS011;14732;51.074;3.788;2024-02-21T12:24:23;12.48;;;7.95;;
27225;SDS011;14732;51.074;3.788;2024-02-21T12:26:53;14.82;;;7.75;;
27225;SDS011;14732;51.074;3.788;2024-02-21T12:29:21;10.45;;;6.75;;
27225;SDS011;14732;51.074;3.788;2024-02-21T12:31:47;13.13;;;6.53;;
27225;SDS011;14732;51.074;3.788;2024-02-21T12:34:14;11.93;;;7.28;;
27225;SDS011;14732;51.074;3.788;2024-02-21T12:36:41;10.82;;;6.40;;
27225;SDS011;14732;51.074;3.788;2024-02-21T12:39:11;10.25;;;6.60;;
27225;SDS011;14732;51.074;3.788;2024-02-21T12:41:37;11.23;;;6.60;;
27225;SDS011;14732;51.074;3.788;2024-02-21T12:44:07;7.60;;;5.88;;
27225;SDS011;14732;51.074;3.788;2024-02-21T12:46:33;11.15;;;5.95;;
27225;SDS011;14732;51.074;3.788;2024-02-21T12:48:59;9.63;;;6.10;;
27225;SDS011;14732;51.074;3.788;2024-02-21T12:51:25;13.20;;;6.60;;
27225;SDS011;14732;51.074;3.788;2024-02-21T12:53:51;12.50;;;7.68;;
27225;SDS011;14732;51.074;3.788;2024-02-21T12:56:17;14.38;;;8.68;;
27225;SDS011;14732;51.074;3.788;2024-02-21T12:58:42;13.30;;;9.10;;
27225;SDS011;14732;51.074;3.788;2024-02-21T13:01:08;13.32;;;8.70;;
27225;SDS011;14732;51.074;3.788;2024-02-21T13:03:34;12.63;;;8.07;;
27225;SDS011;14732;51.074;3.788;2024-02-21T13:05:59;10.27;;;6.85;;
27225;SDS011;14732;51.074;3.788;2024-02-21T13:08:25;13.63;;;7.28;;
27225;SDS011;14732;51.074;3.788;2024-02-21T13:10:51;13.70;;;7.32;;
27225;SDS011;14732;51.074;3.788;2024-02-21T13:13:16;9.23;;;6.07;;
27225;SDS011;14732;51.074;3.788;2024-02-21T13:15:42;12.43;;;5.93;;
27225;SDS011;14732;51.074;3.788;2024-02-21T13:18:08;9.38;;;5.38;;
27225;SDS011;14732;51.074;3.788;2024-02-21T13:20:34;10.60;;;6.00;;
27225;SDS011;14732;51.074;3.788;2024-02-21T13:23:00;7.90;;;5.00;;
27225;SDS011;14732;51.074;3.788;2024-02-21T13:25:26;11.23;;;5.13;;
27225;SDS011;14732;51.074;3.788;2024-02-21T13:27:52;9.82;;;5.00;;
27225;SDS011;14732;51.074;3.788;2024-02-21T13:30:17;10.95;;;5.28;;
27225;SDS011;14732;51.074;3.788;2024-02-21T13:32:44;8.40;;;5.28;;
27225;SDS011;14732;51.074;3.788;2024-02-21T13:35:11;11.75;;;5.63;;
27225;SDS011;14732;51.074;3.788;2024-02-21T13:37:37;9.45;;;5.10;;
27225;SDS011;14732;51.074;3.788;2024-02-21T13:40:04;9.48;;;5.78;;
27225;SDS011;14732;51.074;3.788;2024-02-21T13:42:30;7.80;;;5.15;;
27225;SDS011;14732;51.074;3.788;2024-02-21T13:44:56;9.95;;;5.63;;
27225;SDS011;14732;51.074;3.788;2024-02-21T13:47:21;11.30;;;5.68;;
27225;SDS011;14732;51.074;3.788;2024-02-21T13:49:47;9.88;;;5.80;;
27225;SDS011;14732;51.074;3.788;2024-02-21T13:52:13;10.05;;;5.93;;
27225;SDS011;14732;51.074;3.788;2024-02-21T13:54:39;9.90;;;5.50;;
27225;SDS011;14732;51.074;3.788;2024-02-21T13:57:05;9.63;;;5.25;;
27225;SDS011;14732;51.074;3.788;2024-02-21T13:59:31;16.63;;;5.65;;
27225;SDS011;14732;51.074;3.788;2024-02-21T14:01:58;11.48;;;6.10;;
27225;SDS011;14732;51.074;3.788;2024-02-21T14:04:24;9.15;;;5.40;;
27225;SDS011;14732;51.074;3.788;2024-02-21T14:06:50;9.07;;;5.95;;
27225;SDS011;14732;51.074;3.788;2024-02-21T14:09:16;8.57;;;5.53;;
27225;SDS011;14732;51.074;3.788;2024-02-21T14:11:41;9.98;;;5.90;;
27225;SDS011;14732;51.074;3.788;2024-02-21T14:14:07;11.93;;;5.70;;
27225;SDS011;14732;51.074;3.788;2024-02-21T14:16:33;13.05;;;5.93;;
27225;SDS011;14732;51.074;3.788;2024-02-21T14:18:59;12.63;;;6.15;;
27225;SDS011;14732;51.074;3.788;2024-02-21T14:21:24;10.05;;;5.88;;
27225;SDS011;14732;51.074;3.788;2024-02-21T14:23:50;15.65;;;6.90;;
27225;SDS011;14732;51.074;3.788;2024-02-21T14:26:17;9.48;;;6.20;;
27225;SDS011;14732;51.074;3.788;2024-02-21T14:28:43;10.05;;;5.90;;
27225;SDS011;14732;51.074;3.788;2024-02-21T14:31:09;12.20;;;7.07;;
27225;SDS011;14732;51.074;3.788;2024-02-21T14:33:35;11.25;;;5.90;;
27225;SDS011;14732;51.074;3.788;2024-02-21T14:36:01;14.32;;;5.93;;
27225;SDS011;14732;51.074;3.788;2024-02-21T14:38:27;13.75;;;6.40;;
27225;SDS011;14732;51.074;3.788;2024-02-21T14:40:53;14.63;;;6.53;;
27225;SDS011;14732;51.074;3.788;2024-02-21T14:43:19;10.82;;;6.75;;
27225;SDS011;14732;51.074;3.788;2024-02-21T14:45:46;11.32;;;6.65;;
27225;SDS011;14732;51.074;3.788;2024-02-21T14:48:13;9.73;;;6.05;;
27225;SDS011;14732;51.074;3.788;2024-02-21T14:50:39;11.40;;;6.60;;